Airfield :







YOU CAN JOIN US ON...

 
LOGIN :

Register | Disclaimer

   EN    FR    IT 

 









Legend :    VFR   Marginal VFR   IFR   Intensive IFR   Very Intensive IFR
Visi :
Ceiling :
>= 8 km
>= 3000ft
5 to 8 km
1000 to 3000 ft
1500m to 5 km
500 to 1000 ft
800 to 1500m
200 to 500 ft
< 800m
< 200 ft
Symbols :   Thunderstorms  Fog  Heavy snow  Heavy precipitations  Wind > 20 kt







- Airport Elevation : 24 ft
- IATA code : HFN


BIHN - Hornafjordur

CURRENT METAR :
  • 191700Z 21018KT 9999 2500S BR BKN002 OVC035 11/10 Q1009

EXPIRED METARs :
  • 191600Z 21015KT 9999 BKN003 OVC005 11/11 Q1010

TAF TAF BIHN
Valid from the 19 at 17:00 until the 20 at 02:00 UTC


191612Z 1917/2002 23015KT 9999 DZ BR BKN008 OVC014
TEMPO 1917/2002 1000 RADZ FG VV002
No reported NOTAMs for that airfield.



MET'MAP, your aeronautical weather chart ! - Copyright ORBIFLY December 2007 - Disclaimer

ORBIFLY MET'MAP TEAM :

Programming & Development : Alexandra Zaïnal
Concept & Development : Baudouin d'Aumeries
Co-Development & Prog : Marc-Olivier Méhu
Technical & hardware support : Manuel Goepfert

Contact : metmap@orbifly.com




SOURCES & CREDITS :

   NOAA